sensor_id;sensor_type;location;lat;lon;timestamp;P1;durP1;ratioP1;P2;durP2;ratioP2
16502;SDS011;53067;48.114;11.694;2023-05-09T00:02:26;11.07;;;9.97;;
16502;SDS011;53067;48.114;11.694;2023-05-09T00:04:59;11.73;;;10.47;;
16502;SDS011;53067;48.114;11.694;2023-05-09T00:07:28;12.20;;;10.13;;
16502;SDS011;53067;48.114;11.694;2023-05-09T00:09:56;11.67;;;10.53;;
16502;SDS011;53067;48.114;11.694;2023-05-09T00:12:24;11.73;;;10.37;;
16502;SDS011;53067;48.114;11.694;2023-05-09T00:14:53;12.47;;;10.00;;
16502;SDS011;53067;48.114;11.694;2023-05-09T00:17:22;11.00;;;9.90;;
16502;SDS011;53067;48.114;11.694;2023-05-09T00:19:50;11.40;;;10.20;;
16502;SDS011;53067;48.114;11.694;2023-05-09T00:22:18;11.23;;;10.07;;
16502;SDS011;53067;48.114;11.694;2023-05-09T00:25:07;11.37;;;10.17;;
16502;SDS011;53067;48.114;11.694;2023-05-09T00:27:35;10.40;;;9.30;;
16502;SDS011;53067;48.114;11.694;2023-05-09T00:30:03;11.07;;;10.00;;
16502;SDS011;53067;48.114;11.694;2023-05-09T00:32:32;11.60;;;10.47;;
16502;SDS011;53067;48.114;11.694;2023-05-09T00:35:00;13.30;;;10.10;;
16502;SDS011;53067;48.114;11.694;2023-05-09T00:37:29;12.73;;;10.30;;
16502;SDS011;53067;48.114;11.694;2023-05-09T00:40:03;11.40;;;9.87;;
16502;SDS011;53067;48.114;11.694;2023-05-09T00:42:32;11.90;;;10.40;;
16502;SDS011;53067;48.114;11.694;2023-05-09T00:45:00;10.40;;;9.23;;
16502;SDS011;53067;48.114;11.694;2023-05-09T00:50:15;11.27;;;9.60;;
16502;SDS011;53067;48.114;11.694;2023-05-09T00:52:42;11.47;;;10.27;;
16502;SDS011;53067;48.114;11.694;2023-05-09T00:55:10;10.93;;;9.90;;
16502;SDS011;53067;48.114;11.694;2023-05-09T00:57:38;10.57;;;9.43;;
16502;SDS011;53067;48.114;11.694;2023-05-09T01:00:06;14.77;;;10.77;;
16502;SDS011;53067;48.114;11.694;2023-05-09T01:02:39;11.37;;;10.20;;
16502;SDS011;53067;48.114;11.694;2023-05-09T01:05:08;12.43;;;10.80;;
16502;SDS011;53067;48.114;11.694;2023-05-09T01:10:15;11.30;;;10.07;;
16502;SDS011;53067;48.114;11.694;2023-05-09T01:13:09;11.37;;;10.13;;
16502;SDS011;53067;48.114;11.694;2023-05-09T01:15:57;12.50;;;10.40;;
16502;SDS011;53067;48.114;11.694;2023-05-09T01:18:36;11.50;;;10.30;;
16502;SDS011;53067;48.114;11.694;2023-05-09T01:21:20;9.80;;;8.80;;
16502;SDS011;53067;48.114;11.694;2023-05-09T01:26:45;10.70;;;9.60;;
16502;SDS011;53067;48.114;11.694;2023-05-09T01:29:30;9.70;;;8.70;;
16502;SDS011;53067;48.114;11.694;2023-05-09T01:32:11;10.77;;;9.70;;
16502;SDS011;53067;48.114;11.694;2023-05-09T01:34:37;11.60;;;9.77;;
16502;SDS011;53067;48.114;11.694;2023-05-09T01:37:06;10.13;;;8.90;;
16502;SDS011;53067;48.114;11.694;2023-05-09T01:39:36;10.60;;;9.50;;
16502;SDS011;53067;48.114;11.694;2023-05-09T01:42:06;10.07;;;9.07;;
16502;SDS011;53067;48.114;11.694;2023-05-09T01:44:37;12.03;;;9.07;;
16502;SDS011;53067;48.114;11.694;2023-05-09T01:47:07;10.80;;;9.03;;
16502;SDS011;53067;48.114;11.694;2023-05-09T01:49:36;10.97;;;9.80;;
16502;SDS011;53067;48.114;11.694;2023-05-09T01:52:11;10.93;;;9.43;;
16502;SDS011;53067;48.114;11.694;2023-05-09T01:54:36;9.93;;;8.63;;
16502;SDS011;53067;48.114;11.694;2023-05-09T01:57:06;10.67;;;9.17;;
16502;SDS011;53067;48.114;11.694;2023-05-09T01:59:36;10.43;;;9.33;;
16502;SDS011;53067;48.114;11.694;2023-05-09T02:02:08;10.60;;;8.93;;
16502;SDS011;53067;48.114;11.694;2023-05-09T02:04:36;9.37;;;8.37;;
16502;SDS011;53067;48.114;11.694;2023-05-09T02:07:06;10.93;;;9.83;;
16502;SDS011;53067;48.114;11.694;2023-05-09T02:09:35;11.20;;;9.57;;
16502;SDS011;53067;48.114;11.694;2023-05-09T02:12:02;9.73;;;8.73;;
16502;SDS011;53067;48.114;11.694;2023-05-09T02:14:30;10.73;;;8.83;;
16502;SDS011;53067;48.114;11.694;2023-05-09T02:16:59;10.07;;;8.83;;
16502;SDS011;53067;48.114;11.694;2023-05-09T02:19:34;10.70;;;9.33;;
16502;SDS011;53067;48.114;11.694;2023-05-09T02:22:02;10.60;;;9.13;;
16502;SDS011;53067;48.114;11.694;2023-05-09T02:24:30;9.47;;;8.47;;
16502;SDS011;53067;48.114;11.694;2023-05-09T02:26:59;9.93;;;8.93;;
16502;SDS011;53067;48.114;11.694;2023-05-09T02:29:33;8.93;;;7.80;;
16502;SDS011;53067;48.114;11.694;2023-05-09T02:32:01;9.13;;;8.23;;
16502;SDS011;53067;48.114;11.694;2023-05-09T02:34:29;11.30;;;9.10;;
16502;SDS011;53067;48.114;11.694;2023-05-09T02:36:58;9.37;;;8.47;;
16502;SDS011;53067;48.114;11.694;2023-05-09T02:39:26;10.00;;;9.00;;
16502;SDS011;53067;48.114;11.694;2023-05-09T02:41:54;9.13;;;8.23;;
16502;SDS011;53067;48.114;11.694;2023-05-09T02:44:21;10.40;;;8.63;;
16502;SDS011;53067;48.114;11.694;2023-05-09T02:46:49;9.97;;;8.93;;
16502;SDS011;53067;48.114;11.694;2023-05-09T02:49:16;9.47;;;8.47;;
16502;SDS011;53067;48.114;11.694;2023-05-09T02:51:44;9.60;;;8.60;;
16502;SDS011;53067;48.114;11.694;2023-05-09T02:54:11;10.33;;;8.90;;
16502;SDS011;53067;48.114;11.694;2023-05-09T02:56:39;9.17;;;8.33;;
16502;SDS011;53067;48.114;11.694;2023-05-09T02:59:06;12.10;;;9.67;;
16502;SDS011;53067;48.114;11.694;2023-05-09T03:01:34;10.43;;;9.23;;
16502;SDS011;53067;48.114;11.694;2023-05-09T03:04:01;9.60;;;8.60;;
16502;SDS011;53067;48.114;11.694;2023-05-09T03:06:29;10.00;;;9.00;;
16502;SDS011;53067;48.114;11.694;2023-05-09T03:08:56;9.63;;;8.53;;
16502;SDS011;53067;48.114;11.694;2023-05-09T03:11:24;12.03;;;10.00;;
16502;SDS011;53067;48.114;11.694;2023-05-09T03:13:52;12.63;;;10.10;;
16502;SDS011;53067;48.114;11.694;2023-05-09T03:16:20;9.90;;;8.77;;
16502;SDS011;53067;48.114;11.694;2023-05-09T03:18:47;9.93;;;8.93;;
16502;SDS011;53067;48.114;11.694;2023-05-09T03:21:15;10.90;;;9.20;;
16502;SDS011;53067;48.114;11.694;2023-05-09T03:23:42;10.10;;;9.10;;
16502;SDS011;53067;48.114;11.694;2023-05-09T03:26:10;10.17;;;8.93;;
16502;SDS011;53067;48.114;11.694;2023-05-09T03:28:37;9.27;;;8.27;;
16502;SDS011;53067;48.114;11.694;2023-05-09T03:31:05;9.83;;;8.73;;
16502;SDS011;53067;48.114;11.694;2023-05-09T03:33:32;10.27;;;8.80;;
16502;SDS011;53067;48.114;11.694;2023-05-09T03:36:00;9.23;;;8.23;;
16502;SDS011;53067;48.114;11.694;2023-05-09T03:38:27;10.67;;;9.57;;
16502;SDS011;53067;48.114;11.694;2023-05-09T03:40:55;10.43;;;9.33;;
16502;SDS011;53067;48.114;11.694;2023-05-09T03:43:22;12.20;;;10.23;;
16502;SDS011;53067;48.114;11.694;2023-05-09T03:45:51;11.13;;;9.97;;
16502;SDS011;53067;48.114;11.694;2023-05-09T03:48:19;11.60;;;10.13;;
16502;SDS011;53067;48.114;11.694;2023-05-09T03:50:46;11.50;;;10.30;;
16502;SDS011;53067;48.114;11.694;2023-05-09T03:53:14;12.17;;;9.97;;
16502;SDS011;53067;48.114;11.694;2023-05-09T03:55:42;11.43;;;10.07;;
16502;SDS011;53067;48.114;11.694;2023-05-09T03:58:10;14.40;;;9.83;;
16502;SDS011;53067;48.114;11.694;2023-05-09T04:00:39;11.23;;;9.97;;
16502;SDS011;53067;48.114;11.694;2023-05-09T04:03:06;10.83;;;9.73;;
16502;SDS011;53067;48.114;11.694;2023-05-09T04:05:34;11.37;;;9.70;;
16502;SDS011;53067;48.114;11.694;2023-05-09T04:08:02;10.83;;;9.30;;
16502;SDS011;53067;48.114;11.694;2023-05-09T04:10:30;10.33;;;9.23;;
16502;SDS011;53067;48.114;11.694;2023-05-09T04:12:58;11.20;;;9.67;;
16502;SDS011;53067;48.114;11.694;2023-05-09T04:15:25;9.57;;;8.40;;
16502;SDS011;53067;48.114;11.694;2023-05-09T04:17:53;10.07;;;8.97;;
16502;SDS011;53067;48.114;11.694;2023-05-09T04:20:20;11.47;;;9.70;;
16502;SDS011;53067;48.114;11.694;2023-05-09T04:22:48;9.67;;;8.67;;
16502;SDS011;53067;48.114;11.694;2023-05-09T04:25:15;10.00;;;9.00;;
16502;SDS011;53067;48.114;11.694;2023-05-09T04:27:44;10.43;;;8.27;;
16502;SDS011;53067;48.114;11.694;2023-05-09T04:30:12;10.40;;;8.00;;
16502;SDS011;53067;48.114;11.694;2023-05-09T04:32:40;10.03;;;8.70;;
16502;SDS011;53067;48.114;11.694;2023-05-09T04:35:11;10.40;;;9.20;;
16502;SDS011;53067;48.114;11.694;2023-05-09T04:37:39;10.50;;;8.93;;
16502;SDS011;53067;48.114;11.694;2023-05-09T04:40:07;9.43;;;8.37;;
16502;SDS011;53067;48.114;11.694;2023-05-09T04:42:35;9.73;;;8.73;;
16502;SDS011;53067;48.114;11.694;2023-05-09T04:45:03;9.40;;;8.50;;
16502;SDS011;53067;48.114;11.694;2023-05-09T04:47:32;9.73;;;8.73;;
16502;SDS011;53067;48.114;11.694;2023-05-09T04:49:59;11.53;;;9.13;;
16502;SDS011;53067;48.114;11.694;2023-05-09T04:52:27;13.60;;;8.93;;
16502;SDS011;53067;48.114;11.694;2023-05-09T04:54:54;10.63;;;9.47;;
16502;SDS011;53067;48.114;11.694;2023-05-09T04:57:22;9.37;;;8.47;;
16502;SDS011;53067;48.114;11.694;2023-05-09T04:59:49;9.33;;;8.43;;
16502;SDS011;53067;48.114;11.694;2023-05-09T05:02:17;11.40;;;9.10;;
16502;SDS011;53067;48.114;11.694;2023-05-09T05:04:46;10.60;;;9.50;;
16502;SDS011;53067;48.114;11.694;2023-05-09T05:07:13;10.27;;;9.27;;
16502;SDS011;53067;48.114;11.694;2023-05-09T05:09:41;10.40;;;9.30;;
16502;SDS011;53067;48.114;11.694;2023-05-09T05:12:08;11.63;;;10.20;;
16502;SDS011;53067;48.114;11.694;2023-05-09T05:14:36;10.87;;;9.83;;
16502;SDS011;53067;48.114;11.694;2023-05-09T05:17:03;9.97;;;9.07;;
16502;SDS011;53067;48.114;11.694;2023-05-09T05:19:31;10.77;;;9.63;;
16502;SDS011;53067;48.114;11.694;2023-05-09T05:21:59;10.87;;;9.77;;
16502;SDS011;53067;48.114;11.694;2023-05-09T05:24:26;11.57;;;10.37;;
16502;SDS011;53067;48.114;11.694;2023-05-09T05:26:54;11.83;;;10.73;;
16502;SDS011;53067;48.114;11.694;2023-05-09T05:29:21;11.37;;;10.10;;
16502;SDS011;53067;48.114;11.694;2023-05-09T05:31:49;10.90;;;9.80;;
16502;SDS011;53067;48.114;11.694;2023-05-09T05:34:16;10.10;;;8.97;;
16502;SDS011;53067;48.114;11.694;2023-05-09T05:36:43;12.03;;;9.27;;
16502;SDS011;53067;48.114;11.694;2023-05-09T05:39:12;10.30;;;9.13;;
16502;SDS011;53067;48.114;11.694;2023-05-09T05:41:40;11.53;;;9.03;;
16502;SDS011;53067;48.114;11.694;2023-05-09T05:44:07;10.60;;;8.70;;
16502;SDS011;53067;48.114;11.694;2023-05-09T05:46:35;10.87;;;9.53;;
16502;SDS011;53067;48.114;11.694;2023-05-09T05:49:02;11.47;;;9.17;;
16502;SDS011;53067;48.114;11.694;2023-05-09T05:51:30;10.57;;;8.83;;
16502;SDS011;53067;48.114;11.694;2023-05-09T05:53:57;11.50;;;9.60;;
16502;SDS011;53067;48.114;11.694;2023-05-09T05:56:25;9.57;;;8.67;;
16502;SDS011;53067;48.114;11.694;2023-05-09T05:58:53;10.30;;;9.17;;
16502;SDS011;53067;48.114;11.694;2023-05-09T06:01:20;10.60;;;9.53;;
16502;SDS011;53067;48.114;11.694;2023-05-09T06:03:48;10.50;;;9.40;;
16502;SDS011;53067;48.114;11.694;2023-05-09T06:06:17;10.10;;;9.13;;
16502;SDS011;53067;48.114;11.694;2023-05-09T06:08:44;10.40;;;9.20;;
16502;SDS011;53067;48.114;11.694;2023-05-09T06:11:12;12.87;;;8.97;;
16502;SDS011;53067;48.114;11.694;2023-05-09T06:13:40;13.73;;;9.27;;
16502;SDS011;53067;48.114;11.694;2023-05-09T06:16:07;10.77;;;8.87;;
16502;SDS011;53067;48.114;11.694;2023-05-09T06:18:35;12.40;;;10.50;;
16502;SDS011;53067;48.114;11.694;2023-05-09T06:21:10;11.37;;;9.70;;
16502;SDS011;53067;48.114;11.694;2023-05-09T06:23:33;10.97;;;9.87;;
16502;SDS011;53067;48.114;11.694;2023-05-09T06:26:02;10.30;;;9.27;;
16502;SDS011;53067;48.114;11.694;2023-05-09T06:28:30;11.17;;;10.07;;
16502;SDS011;53067;48.114;11.694;2023-05-09T06:30:58;10.87;;;9.87;;
16502;SDS011;53067;48.114;11.694;2023-05-09T06:33:26;14.07;;;9.30;;
16502;SDS011;53067;48.114;11.694;2023-05-09T06:35:53;9.90;;;8.93;;
16502;SDS011;53067;48.114;11.694;2023-05-09T06:38:21;9.93;;;8.93;;
16502;SDS011;53067;48.114;11.694;2023-05-09T06:40:48;10.33;;;9.33;;
16502;SDS011;53067;48.114;11.694;2023-05-09T06:43:16;10.57;;;9.43;;
16502;SDS011;53067;48.114;11.694;2023-05-09T06:45:43;9.07;;;8.27;;
16502;SDS011;53067;48.114;11.694;2023-05-09T06:48:11;9.93;;;8.93;;
16502;SDS011;53067;48.114;11.694;2023-05-09T06:50:38;10.83;;;9.73;;
16502;SDS011;53067;48.114;11.694;2023-05-09T06:53:06;9.67;;;8.67;;
16502;SDS011;53067;48.114;11.694;2023-05-09T06:55:33;9.43;;;8.63;;
16502;SDS011;53067;48.114;11.694;2023-05-09T06:58:01;9.43;;;8.43;;
16502;SDS011;53067;48.114;11.694;2023-05-09T07:00:29;10.40;;;8.40;;
16502;SDS011;53067;48.114;11.694;2023-05-09T07:02:57;9.73;;;8.93;;
16502;SDS011;53067;48.114;11.694;2023-05-09T07:05:24;10.03;;;8.80;;
16502;SDS011;53067;48.114;11.694;2023-05-09T07:07:52;9.33;;;8.43;;
16502;SDS011;53067;48.114;11.694;2023-05-09T07:10:21;9.23;;;8.37;;
16502;SDS011;53067;48.114;11.694;2023-05-09T07:12:48;10.53;;;8.73;;
16502;SDS011;53067;48.114;11.694;2023-05-09T07:15:16;8.90;;;8.10;;
16502;SDS011;53067;48.114;11.694;2023-05-09T07:17:43;9.67;;;8.77;;
16502;SDS011;53067;48.114;11.694;2023-05-09T07:20:11;9.33;;;8.27;;
16502;SDS011;53067;48.114;11.694;2023-05-09T07:22:39;9.67;;;8.67;;
16502;SDS011;53067;48.114;11.694;2023-05-09T07:25:06;9.63;;;8.73;;
16502;SDS011;53067;48.114;11.694;2023-05-09T07:27:35;9.07;;;8.17;;
16502;SDS011;53067;48.114;11.694;2023-05-09T07:30:03;13.20;;;9.47;;
16502;SDS011;53067;48.114;11.694;2023-05-09T07:32:32;10.60;;;8.10;;
16502;SDS011;53067;48.114;11.694;2023-05-09T07:35:05;9.37;;;8.43;;
16502;SDS011;53067;48.114;11.694;2023-05-09T07:37:33;11.20;;;9.00;;
16502;SDS011;53067;48.114;11.694;2023-05-09T07:40:01;9.50;;;8.57;;
16502;SDS011;53067;48.114;11.694;2023-05-09T07:42:31;9.87;;;8.67;;
16502;SDS011;53067;48.114;11.694;2023-05-09T07:44:58;10.77;;;9.63;;
16502;SDS011;53067;48.114;11.694;2023-05-09T07:47:26;9.87;;;8.97;;
16502;SDS011;53067;48.114;11.694;2023-05-09T07:49:53;9.90;;;8.90;;
16502;SDS011;53067;48.114;11.694;2023-05-09T07:52:21;10.20;;;9.10;;
16502;SDS011;53067;48.114;11.694;2023-05-09T07:54:48;10.27;;;9.27;;
16502;SDS011;53067;48.114;11.694;2023-05-09T07:57:16;10.77;;;9.63;;
16502;SDS011;53067;48.114;11.694;2023-05-09T07:59:43;10.30;;;9.20;;
16502;SDS011;53067;48.114;11.694;2023-05-09T08:02:11;9.47;;;8.53;;
16502;SDS011;53067;48.114;11.694;2023-05-09T08:04:38;9.77;;;8.77;;
16502;SDS011;53067;48.114;11.694;2023-05-09T08:07:06;10.17;;;9.07;;
16502;SDS011;53067;48.114;11.694;2023-05-09T08:09:34;9.90;;;8.80;;
16502;SDS011;53067;48.114;11.694;2023-05-09T08:12:02;10.10;;;8.87;;
16502;SDS011;53067;48.114;11.694;2023-05-09T08:14:30;9.50;;;8.50;;
16502;SDS011;53067;48.114;11.694;2023-05-09T08:16:57;9.33;;;8.53;;
16502;SDS011;53067;48.114;11.694;2023-05-09T08:19:25;9.00;;;7.85;;
16502;SDS011;53067;48.114;11.694;2023-05-09T08:21:55;11.00;;;8.83;;
16502;SDS011;53067;48.114;11.694;2023-05-09T08:24:23;8.97;;;8.17;;
16502;SDS011;53067;48.114;11.694;2023-05-09T08:26:51;9.17;;;8.33;;
16502;SDS011;53067;48.114;11.694;2023-05-09T08:29:18;9.93;;;8.33;;
16502;SDS011;53067;48.114;11.694;2023-05-09T08:31:46;8.60;;;7.80;;
16502;SDS011;53067;48.114;11.694;2023-05-09T08:34:13;9.23;;;8.33;;
16502;SDS011;53067;48.114;11.694;2023-05-09T08:36:40;9.13;;;8.33;;
16502;SDS011;53067;48.114;11.694;2023-05-09T08:39:10;8.50;;;7.53;;
16502;SDS011;53067;48.114;11.694;2023-05-09T08:41:37;8.57;;;7.80;;
16502;SDS011;53067;48.114;11.694;2023-05-09T08:44:05;8.90;;;8.10;;
16502;SDS011;53067;48.114;11.694;2023-05-09T08:46:35;9.87;;;8.40;;
16502;SDS011;53067;48.114;11.694;2023-05-09T08:49:04;9.15;;;8.25;;
16502;SDS011;53067;48.114;11.694;2023-05-09T08:51:34;7.83;;;7.23;;
16502;SDS011;53067;48.114;11.694;2023-05-09T08:54:02;9.33;;;8.53;;
16502;SDS011;53067;48.114;11.694;2023-05-09T08:56:30;9.00;;;8.13;;
16502;SDS011;53067;48.114;11.694;2023-05-09T08:58:59;8.70;;;7.93;;
16502;SDS011;53067;48.114;11.694;2023-05-09T09:01:27;12.25;;;8.80;;
16502;SDS011;53067;48.114;11.694;2023-05-09T09:03:56;10.55;;;9.53;;
16502;SDS011;53067;48.114;11.694;2023-05-09T09:06:23;9.73;;;8.83;;
16502;SDS011;53067;48.114;11.694;2023-05-09T09:08:52;9.50;;;8.60;;
16502;SDS011;53067;48.114;11.694;2023-05-09T09:11:22;9.75;;;8.60;;
16502;SDS011;53067;48.114;11.694;2023-05-09T09:13:53;8.70;;;8.00;;
16502;SDS011;53067;48.114;11.694;2023-05-09T09:16:45;9.03;;;8.13;;
16502;SDS011;53067;48.114;11.694;2023-05-09T09:19:15;9.65;;;8.30;;
16502;SDS011;53067;48.114;11.694;2023-05-09T09:21:44;9.47;;;8.47;;
16502;SDS011;53067;48.114;11.694;2023-05-09T09:24:16;9.55;;;8.65;;
16502;SDS011;53067;48.114;11.694;2023-05-09T09:26:46;10.10;;;8.55;;
16502;SDS011;53067;48.114;11.694;2023-05-09T09:29:16;8.90;;;8.00;;
16502;SDS011;53067;48.114;11.694;2023-05-09T09:31:46;8.93;;;8.10;;
16502;SDS011;53067;48.114;11.694;2023-05-09T09:34:18;8.53;;;7.70;;
16502;SDS011;53067;48.114;11.694;2023-05-09T09:36:46;8.98;;;7.60;;
16502;SDS011;53067;48.114;11.694;2023-05-09T09:39:14;9.23;;;8.38;;
16502;SDS011;53067;48.114;11.694;2023-05-09T09:41:42;8.00;;;7.30;;
16502;SDS011;53067;48.114;11.694;2023-05-09T09:44:13;8.80;;;7.92;;
16502;SDS011;53067;48.114;11.694;2023-05-09T09:46:43;8.48;;;7.75;;
16502;SDS011;53067;48.114;11.694;2023-05-09T09:49:12;8.73;;;7.95;;
16502;SDS011;53067;48.114;11.694;2023-05-09T09:51:41;9.05;;;8.05;;
16502;SDS011;53067;48.114;11.694;2023-05-09T09:54:10;8.38;;;7.67;;
16502;SDS011;53067;48.114;11.694;2023-05-09T09:56:39;8.40;;;7.58;;
16502;SDS011;53067;48.114;11.694;2023-05-09T09:59:09;8.60;;;7.83;;
16502;SDS011;53067;48.114;11.694;2023-05-09T10:04:29;7.95;;;7.25;;
16502;SDS011;53067;48.114;11.694;2023-05-09T10:07:05;8.73;;;7.83;;
16502;SDS011;53067;48.114;11.694;2023-05-09T10:09:31;10.15;;;9.15;;
16502;SDS011;53067;48.114;11.694;2023-05-09T10:12:05;9.25;;;8.45;;
16502;SDS011;53067;48.114;11.694;2023-05-09T10:14:31;9.43;;;8.53;;
16502;SDS011;53067;48.114;11.694;2023-05-09T10:17:01;8.70;;;7.80;;
16502;SDS011;53067;48.114;11.694;2023-05-09T10:19:30;8.60;;;7.80;;
16502;SDS011;53067;48.114;11.694;2023-05-09T10:22:02;11.78;;;9.05;;
16502;SDS011;53067;48.114;11.694;2023-05-09T10:27:20;9.95;;;9.05;;
16502;SDS011;53067;48.114;11.694;2023-05-09T10:29:48;12.37;;;9.00;;
16502;SDS011;53067;48.114;11.694;2023-05-09T10:32:32;9.80;;;8.90;;
16502;SDS011;53067;48.114;11.694;2023-05-09T10:35:03;9.53;;;8.73;;
16502;SDS011;53067;48.114;11.694;2023-05-09T10:37:32;10.43;;;9.38;;
16502;SDS011;53067;48.114;11.694;2023-05-09T10:40:00;10.08;;;9.18;;
16502;SDS011;53067;48.114;11.694;2023-05-09T10:42:45;10.80;;;9.73;;
16502;SDS011;53067;48.114;11.694;2023-05-09T10:45:12;10.43;;;9.35;;
16502;SDS011;53067;48.114;11.694;2023-05-09T10:47:40;10.30;;;8.93;;
16502;SDS011;53067;48.114;11.694;2023-05-09T10:50:11;10.53;;;9.43;;
16502;SDS011;53067;48.114;11.694;2023-05-09T10:55:56;11.30;;;10.20;;
16502;SDS011;53067;48.114;11.694;2023-05-09T10:58:43;9.98;;;8.98;;
16502;SDS011;53067;48.114;11.694;2023-05-09T11:01:13;10.93;;;10.03;;
16502;SDS011;53067;48.114;11.694;2023-05-09T11:03:52;10.08;;;9.13;;
16502;SDS011;53067;48.114;11.694;2023-05-09T11:09:32;9.55;;;8.70;;
16502;SDS011;53067;48.114;11.694;2023-05-09T11:14:46;9.95;;;8.90;;
16502;SDS011;53067;48.114;11.694;2023-05-09T11:17:14;10.00;;;8.98;;
16502;SDS011;53067;48.114;11.694;2023-05-09T11:20:04;10.75;;;9.75;;
16502;SDS011;53067;48.114;11.694;2023-05-09T11:22:41;11.57;;;9.60;;
16502;SDS011;53067;48.114;11.694;2023-05-09T11:25:23;11.95;;;10.85;;
16502;SDS011;53067;48.114;11.694;2023-05-09T11:27:49;10.18;;;9.28;;
16502;SDS011;53067;48.114;11.694;2023-05-09T11:30:17;10.45;;;9.55;;
16502;SDS011;53067;48.114;11.694;2023-05-09T11:32:48;10.68;;;9.68;;
16502;SDS011;53067;48.114;11.694;2023-05-09T11:35:23;10.98;;;10.03;;
16502;SDS011;53067;48.114;11.694;2023-05-09T11:38:00;10.53;;;9.65;;
16502;SDS011;53067;48.114;11.694;2023-05-09T11:40:29;11.63;;;10.63;;
16502;SDS011;53067;48.114;11.694;2023-05-09T11:42:58;11.33;;;10.32;;
16502;SDS011;53067;48.114;11.694;2023-05-09T11:45:30;12.03;;;10.88;;
16502;SDS011;53067;48.114;11.694;2023-05-09T11:47:58;11.88;;;10.72;;
16502;SDS011;53067;48.114;11.694;2023-05-09T11:50:27;10.43;;;9.50;;
16502;SDS011;53067;48.114;11.694;2023-05-09T11:52:54;10.98;;;9.98;;
16502;SDS011;53067;48.114;11.694;2023-05-09T11:55:22;10.10;;;9.17;;
16502;SDS011;53067;48.114;11.694;2023-05-09T11:57:54;12.07;;;10.90;;
16502;SDS011;53067;48.114;11.694;2023-05-09T12:00:22;10.55;;;9.65;;
16502;SDS011;53067;48.114;11.694;2023-05-09T12:02:51;10.98;;;9.83;;
16502;SDS011;53067;48.114;11.694;2023-05-09T12:05:20;10.90;;;9.85;;
16502;SDS011;53067;48.114;11.694;2023-05-09T12:07:48;10.53;;;9.43;;
16502;SDS011;53067;48.114;11.694;2023-05-09T12:10:20;9.55;;;8.65;;
16502;SDS011;53067;48.114;11.694;2023-05-09T12:12:49;9.60;;;8.80;;
16502;SDS011;53067;48.114;11.694;2023-05-09T12:15:22;9.93;;;9.08;;
16502;SDS011;53067;48.114;11.694;2023-05-09T12:18:05;10.95;;;8.95;;
16502;SDS011;53067;48.114;11.694;2023-05-09T12:20:39;8.93;;;8.23;;
16502;SDS011;53067;48.114;11.694;2023-05-09T12:23:08;9.60;;;8.80;;
16502;SDS011;53067;48.114;11.694;2023-05-09T12:25:37;9.90;;;8.58;;
16502;SDS011;53067;48.114;11.694;2023-05-09T12:28:04;10.28;;;9.28;;
16502;SDS011;53067;48.114;11.694;2023-05-09T12:30:32;9.28;;;8.35;;
16502;SDS011;53067;48.114;11.694;2023-05-09T12:33:00;9.93;;;8.93;;
16502;SDS011;53067;48.114;11.694;2023-05-09T12:35:28;8.85;;;7.70;;
16502;SDS011;53067;48.114;11.694;2023-05-09T12:37:57;8.95;;;7.50;;
16502;SDS011;53067;48.114;11.694;2023-05-09T12:40:24;8.78;;;8.08;;
16502;SDS011;53067;48.114;11.694;2023-05-09T12:42:52;11.03;;;9.93;;
16502;SDS011;53067;48.114;11.694;2023-05-09T12:45:23;7.78;;;7.17;;
16502;SDS011;53067;48.114;11.694;2023-05-09T12:47:51;7.30;;;6.70;;
16502;SDS011;53067;48.114;11.694;2023-05-09T12:50:19;6.90;;;6.30;;
16502;SDS011;53067;48.114;11.694;2023-05-09T12:52:50;8.13;;;7.42;;
16502;SDS011;53067;48.114;11.694;2023-05-09T12:55:18;8.20;;;7.40;;
16502;SDS011;53067;48.114;11.694;2023-05-09T12:57:55;8.23;;;7.00;;
16502;SDS011;53067;48.114;11.694;2023-05-09T13:00:16;8.35;;;7.60;;
16502;SDS011;53067;48.114;11.694;2023-05-09T13:02:44;7.75;;;7.05;;
16502;SDS011;53067;48.114;11.694;2023-05-09T13:05:18;6.87;;;6.37;;
16502;SDS011;53067;48.114;11.694;2023-05-09T13:07:51;7.30;;;6.58;;
16502;SDS011;53067;48.114;11.694;2023-05-09T13:10:24;8.00;;;7.08;;
16502;SDS011;53067;48.114;11.694;2023-05-09T13:12:55;7.30;;;6.62;;
16502;SDS011;53067;48.114;11.694;2023-05-09T13:15:23;7.33;;;6.60;;
16502;SDS011;53067;48.114;11.694;2023-05-09T13:17:52;6.75;;;6.25;;
16502;SDS011;53067;48.114;11.694;2023-05-09T13:20:20;7.35;;;6.65;;
16502;SDS011;53067;48.114;11.694;2023-05-09T13:22:48;6.15;;;5.75;;
16502;SDS011;53067;48.114;11.694;2023-05-09T13:25:15;6.78;;;6.25;;
16502;SDS011;53067;48.114;11.694;2023-05-09T13:27:45;6.92;;;6.42;;
16502;SDS011;53067;48.114;11.694;2023-05-09T13:30:12;7.08;;;5.90;;
16502;SDS011;53067;48.114;11.694;2023-05-09T13:32:40;6.33;;;5.83;;
16502;SDS011;53067;48.114;11.694;2023-05-09T13:35:08;5.75;;;5.10;;
16502;SDS011;53067;48.114;11.694;2023-05-09T13:37:35;6.62;;;6.00;;
16502;SDS011;53067;48.114;11.694;2023-05-09T13:40:05;7.92;;;7.15;;
16502;SDS011;53067;48.114;11.694;2023-05-09T13:42:51;7.28;;;6.58;;
16502;SDS011;53067;48.114;11.694;2023-05-09T13:45:19;7.50;;;6.35;;
16502;SDS011;53067;48.114;11.694;2023-05-09T13:47:48;6.92;;;6.42;;
16502;SDS011;53067;48.114;11.694;2023-05-09T13:50:16;7.78;;;6.20;;
16502;SDS011;53067;48.114;11.694;2023-05-09T13:52:43;5.78;;;5.28;;
16502;SDS011;53067;48.114;11.694;2023-05-09T13:55:12;7.53;;;6.10;;
16502;SDS011;53067;48.114;11.694;2023-05-09T13:57:39;6.37;;;5.70;;
16502;SDS011;53067;48.114;11.694;2023-05-09T14:00:08;6.97;;;6.20;;
16502;SDS011;53067;48.114;11.694;2023-05-09T14:02:54;7.03;;;6.53;;
16502;SDS011;53067;48.114;11.694;2023-05-09T14:05:22;6.53;;;6.00;;
16502;SDS011;53067;48.114;11.694;2023-05-09T14:07:49;6.25;;;5.67;;
16502;SDS011;53067;48.114;11.694;2023-05-09T14:10:17;6.55;;;6.05;;
16502;SDS011;53067;48.114;11.694;2023-05-09T14:12:45;6.12;;;5.55;;
16502;SDS011;53067;48.114;11.694;2023-05-09T14:15:12;5.55;;;5.15;;
16502;SDS011;53067;48.114;11.694;2023-05-09T14:17:41;6.17;;;5.67;;
16502;SDS011;53067;48.114;11.694;2023-05-09T14:20:08;7.55;;;6.97;;
16502;SDS011;53067;48.114;11.694;2023-05-09T14:22:36;7.17;;;6.67;;
16502;SDS011;53067;48.114;11.694;2023-05-09T14:25:04;7.33;;;6.20;;
16502;SDS011;53067;48.114;11.694;2023-05-09T14:27:32;7.40;;;6.45;;
16502;SDS011;53067;48.114;11.694;2023-05-09T14:30:24;7.20;;;5.37;;
16502;SDS011;53067;48.114;11.694;2023-05-09T14:32:52;6.17;;;5.50;;
16502;SDS011;53067;48.114;11.694;2023-05-09T14:35:19;7.42;;;6.83;;
16502;SDS011;53067;48.114;11.694;2023-05-09T14:37:46;9.05;;;8.15;;
16502;SDS011;53067;48.114;11.694;2023-05-09T14:40:14;9.18;;;7.75;;
16502;SDS011;53067;48.114;11.694;2023-05-09T14:42:41;6.95;;;6.37;;
16502;SDS011;53067;48.114;11.694;2023-05-09T14:47:58;5.33;;;4.83;;
16502;SDS011;53067;48.114;11.694;2023-05-09T14:50:26;6.20;;;5.70;;
16502;SDS011;53067;48.114;11.694;2023-05-09T14:52:54;5.58;;;5.08;;
16502;SDS011;53067;48.114;11.694;2023-05-09T14:55:20;5.95;;;5.40;;
16502;SDS011;53067;48.114;11.694;2023-05-09T14:57:49;6.33;;;5.62;;
16502;SDS011;53067;48.114;11.694;2023-05-09T15:00:15;6.40;;;5.62;;
16502;SDS011;53067;48.114;11.694;2023-05-09T15:02:43;6.15;;;5.65;;
16502;SDS011;53067;48.114;11.694;2023-05-09T15:05:11;5.05;;;4.65;;